sensor_id;sensor_type;location;lat;lon;timestamp;P1;durP1;ratioP1;P2;durP2;ratioP2
40501;SDS011;29631;49.168;9.848;2023-09-07T00:00:12;2.40;;;2.30;;
40501;SDS011;29631;49.168;9.848;2023-09-07T00:02:39;3.05;;;2.90;;
40501;SDS011;29631;49.168;9.848;2023-09-07T00:05:06;2.83;;;2.72;;
40501;SDS011;29631;49.168;9.848;2023-09-07T00:07:32;2.85;;;2.58;;
40501;SDS011;29631;49.168;9.848;2023-09-07T00:09:59;2.65;;;2.55;;
40501;SDS011;29631;49.168;9.848;2023-09-07T00:12:25;3.17;;;2.97;;
40501;SDS011;29631;49.168;9.848;2023-09-07T00:14:52;2.75;;;2.65;;
40501;SDS011;29631;49.168;9.848;2023-09-07T00:17:19;2.70;;;2.60;;
40501;SDS011;29631;49.168;9.848;2023-09-07T00:19:46;2.55;;;2.45;;
40501;SDS011;29631;49.168;9.848;2023-09-07T00:22:16;3.35;;;3.05;;
40501;SDS011;29631;49.168;9.848;2023-09-07T00:24:42;3.05;;;2.85;;
40501;SDS011;29631;49.168;9.848;2023-09-07T00:27:09;2.85;;;2.65;;
40501;SDS011;29631;49.168;9.848;2023-09-07T00:29:36;3.00;;;2.83;;
40501;SDS011;29631;49.168;9.848;2023-09-07T00:32:03;2.63;;;2.50;;
40501;SDS011;29631;49.168;9.848;2023-09-07T00:34:29;3.00;;;2.80;;
40501;SDS011;29631;49.168;9.848;2023-09-07T00:36:56;3.10;;;2.90;;
40501;SDS011;29631;49.168;9.848;2023-09-07T00:39:22;3.13;;;2.90;;
40501;SDS011;29631;49.168;9.848;2023-09-07T00:41:48;2.83;;;2.72;;
40501;SDS011;29631;49.168;9.848;2023-09-07T00:44:14;3.50;;;3.20;;
40501;SDS011;29631;49.168;9.848;2023-09-07T00:46:39;3.20;;;3.00;;
40501;SDS011;29631;49.168;9.848;2023-09-07T00:49:06;3.42;;;3.20;;
40501;SDS011;29631;49.168;9.848;2023-09-07T00:51:32;3.30;;;3.10;;
40501;SDS011;29631;49.168;9.848;2023-09-07T00:53:59;3.47;;;3.28;;
40501;SDS011;29631;49.168;9.848;2023-09-07T00:56:25;3.42;;;3.22;;
40501;SDS011;29631;49.168;9.848;2023-09-07T00:58:52;3.35;;;3.15;;
40501;SDS011;29631;49.168;9.848;2023-09-07T01:01:23;2.88;;;2.75;;
40501;SDS011;29631;49.168;9.848;2023-09-07T01:03:50;2.95;;;2.75;;
40501;SDS011;29631;49.168;9.848;2023-09-07T01:06:17;3.20;;;3.00;;
40501;SDS011;29631;49.168;9.848;2023-09-07T01:08:55;2.88;;;2.78;;
40501;SDS011;29631;49.168;9.848;2023-09-07T01:11:25;3.22;;;3.03;;
40501;SDS011;29631;49.168;9.848;2023-09-07T01:13:51;3.30;;;3.10;;
40501;SDS011;29631;49.168;9.848;2023-09-07T01:16:19;3.10;;;2.90;;
40501;SDS011;29631;49.168;9.848;2023-09-07T01:18:46;3.40;;;3.20;;
40501;SDS011;29631;49.168;9.848;2023-09-07T01:21:12;3.58;;;3.38;;
40501;SDS011;29631;49.168;9.848;2023-09-07T01:23:40;3.03;;;2.83;;
40501;SDS011;29631;49.168;9.848;2023-09-07T01:26:07;2.97;;;2.80;;
40501;SDS011;29631;49.168;9.848;2023-09-07T01:28:35;3.17;;;2.90;;
40501;SDS011;29631;49.168;9.848;2023-09-07T01:31:02;3.50;;;3.28;;
40501;SDS011;29631;49.168;9.848;2023-09-07T01:33:28;3.67;;;3.22;;
40501;SDS011;29631;49.168;9.848;2023-09-07T01:35:54;3.05;;;2.90;;
40501;SDS011;29631;49.168;9.848;2023-09-07T01:38:20;3.65;;;3.35;;
40501;SDS011;29631;49.168;9.848;2023-09-07T01:40:45;3.22;;;3.10;;
40501;SDS011;29631;49.168;9.848;2023-09-07T01:43:11;3.03;;;2.83;;
40501;SDS011;29631;49.168;9.848;2023-09-07T01:45:37;2.88;;;2.78;;
40501;SDS011;29631;49.168;9.848;2023-09-07T01:48:05;3.25;;;3.05;;
40501;SDS011;29631;49.168;9.848;2023-09-07T01:50:35;3.30;;;3.20;;
40501;SDS011;29631;49.168;9.848;2023-09-07T01:53:01;3.20;;;3.00;;
40501;SDS011;29631;49.168;9.848;2023-09-07T01:55:28;3.17;;;2.97;;
40501;SDS011;29631;49.168;9.848;2023-09-07T01:57:54;3.45;;;3.25;;
40501;SDS011;29631;49.168;9.848;2023-09-07T02:00:19;3.05;;;2.92;;
40501;SDS011;29631;49.168;9.848;2023-09-07T02:02:45;2.72;;;2.63;;
40501;SDS011;29631;49.168;9.848;2023-09-07T02:05:11;3.33;;;3.13;;
40501;SDS011;29631;49.168;9.848;2023-09-07T02:07:37;3.22;;;3.00;;
40501;SDS011;29631;49.168;9.848;2023-09-07T02:10:03;3.40;;;3.10;;
40501;SDS011;29631;49.168;9.848;2023-09-07T02:12:29;3.08;;;2.97;;
40501;SDS011;29631;49.168;9.848;2023-09-07T02:14:55;3.10;;;2.90;;
40501;SDS011;29631;49.168;9.848;2023-09-07T02:17:21;3.28;;;3.17;;
40501;SDS011;29631;49.168;9.848;2023-09-07T02:19:47;3.30;;;3.00;;
40501;SDS011;29631;49.168;9.848;2023-09-07T02:22:13;3.28;;;3.08;;
40501;SDS011;29631;49.168;9.848;2023-09-07T02:24:38;3.03;;;2.92;;
40501;SDS011;29631;49.168;9.848;2023-09-07T02:27:04;3.35;;;3.15;;
40501;SDS011;29631;49.168;9.848;2023-09-07T02:29:30;3.50;;;3.30;;
40501;SDS011;29631;49.168;9.848;2023-09-07T02:31:55;3.28;;;3.08;;
40501;SDS011;29631;49.168;9.848;2023-09-07T02:34:22;3.28;;;3.08;;
40501;SDS011;29631;49.168;9.848;2023-09-07T02:36:48;3.30;;;3.10;;
40501;SDS011;29631;49.168;9.848;2023-09-07T02:39:14;3.33;;;3.10;;
40501;SDS011;29631;49.168;9.848;2023-09-07T02:41:40;3.58;;;3.33;;
40501;SDS011;29631;49.168;9.848;2023-09-07T02:44:05;3.17;;;2.92;;
40501;SDS011;29631;49.168;9.848;2023-09-07T02:46:31;3.53;;;3.33;;
40501;SDS011;29631;49.168;9.848;2023-09-07T02:48:57;3.10;;;2.90;;
40501;SDS011;29631;49.168;9.848;2023-09-07T02:51:23;3.17;;;3.05;;
40501;SDS011;29631;49.168;9.848;2023-09-07T02:53:50;3.72;;;3.47;;
40501;SDS011;29631;49.168;9.848;2023-09-07T02:56:16;3.40;;;3.20;;
40501;SDS011;29631;49.168;9.848;2023-09-07T02:58:42;3.03;;;2.92;;
40501;SDS011;29631;49.168;9.848;2023-09-07T03:01:08;3.50;;;3.30;;
40501;SDS011;29631;49.168;9.848;2023-09-07T03:03:35;3.50;;;3.38;;
40501;SDS011;29631;49.168;9.848;2023-09-07T03:06:08;3.50;;;3.30;;
40501;SDS011;29631;49.168;9.848;2023-09-07T03:08:35;3.47;;;3.28;;
40501;SDS011;29631;49.168;9.848;2023-09-07T03:11:04;2.97;;;2.88;;
40501;SDS011;29631;49.168;9.848;2023-09-07T03:13:31;3.53;;;3.33;;
40501;SDS011;29631;49.168;9.848;2023-09-07T03:15:58;3.25;;;3.05;;
40501;SDS011;29631;49.168;9.848;2023-09-07T03:18:24;3.42;;;3.17;;
40501;SDS011;29631;49.168;9.848;2023-09-07T03:20:52;3.80;;;3.60;;
40501;SDS011;29631;49.168;9.848;2023-09-07T03:23:20;3.60;;;3.30;;
40501;SDS011;29631;49.168;9.848;2023-09-07T03:25:48;3.70;;;3.45;;
40501;SDS011;29631;49.168;9.848;2023-09-07T03:28:13;3.72;;;3.53;;
40501;SDS011;29631;49.168;9.848;2023-09-07T03:30:39;3.58;;;3.38;;
40501;SDS011;29631;49.168;9.848;2023-09-07T03:33:05;3.63;;;3.33;;
40501;SDS011;29631;49.168;9.848;2023-09-07T03:35:31;3.50;;;3.30;;
40501;SDS011;29631;49.168;9.848;2023-09-07T03:37:57;3.60;;;3.40;;
40501;SDS011;29631;49.168;9.848;2023-09-07T03:40:23;3.38;;;3.17;;
40501;SDS011;29631;49.168;9.848;2023-09-07T03:42:49;3.70;;;3.50;;
40501;SDS011;29631;49.168;9.848;2023-09-07T03:45:15;3.60;;;3.35;;
40501;SDS011;29631;49.168;9.848;2023-09-07T03:47:41;3.38;;;3.08;;
40501;SDS011;29631;49.168;9.848;2023-09-07T03:50:07;3.45;;;3.25;;
40501;SDS011;29631;49.168;9.848;2023-09-07T03:52:34;3.45;;;3.25;;
40501;SDS011;29631;49.168;9.848;2023-09-07T03:55:00;3.58;;;3.38;;
40501;SDS011;29631;49.168;9.848;2023-09-07T03:57:26;3.50;;;3.22;;
40501;SDS011;29631;49.168;9.848;2023-09-07T03:59:52;3.88;;;3.58;;
40501;SDS011;29631;49.168;9.848;2023-09-07T04:02:22;3.50;;;3.30;;
40501;SDS011;29631;49.168;9.848;2023-09-07T04:04:52;3.65;;;3.45;;
40501;SDS011;29631;49.168;9.848;2023-09-07T04:07:20;3.92;;;3.72;;
40501;SDS011;29631;49.168;9.848;2023-09-07T04:09:46;3.88;;;3.58;;
40501;SDS011;29631;49.168;9.848;2023-09-07T04:12:12;3.55;;;3.25;;
40501;SDS011;29631;49.168;9.848;2023-09-07T04:14:37;3.75;;;3.45;;
40501;SDS011;29631;49.168;9.848;2023-09-07T04:17:04;3.38;;;3.28;;
40501;SDS011;29631;49.168;9.848;2023-09-07T04:19:30;3.92;;;3.72;;
40501;SDS011;29631;49.168;9.848;2023-09-07T04:21:59;3.55;;;3.35;;
40501;SDS011;29631;49.168;9.848;2023-09-07T04:24:25;3.65;;;3.45;;
40501;SDS011;29631;49.168;9.848;2023-09-07T04:26:52;4.07;;;3.78;;
40501;SDS011;29631;49.168;9.848;2023-09-07T04:29:22;4.13;;;3.88;;
40501;SDS011;29631;49.168;9.848;2023-09-07T04:31:49;4.00;;;3.80;;
40501;SDS011;29631;49.168;9.848;2023-09-07T04:34:14;3.95;;;3.70;;
40501;SDS011;29631;49.168;9.848;2023-09-07T04:36:40;3.60;;;3.40;;
40501;SDS011;29631;49.168;9.848;2023-09-07T04:39:06;4.03;;;3.72;;
40501;SDS011;29631;49.168;9.848;2023-09-07T04:41:31;3.83;;;3.63;;
40501;SDS011;29631;49.168;9.848;2023-09-07T04:43:57;4.25;;;3.95;;
40501;SDS011;29631;49.168;9.848;2023-09-07T04:46:23;3.60;;;3.35;;
40501;SDS011;29631;49.168;9.848;2023-09-07T04:48:49;3.60;;;3.40;;
40501;SDS011;29631;49.168;9.848;2023-09-07T04:51:14;3.92;;;3.72;;
40501;SDS011;29631;49.168;9.848;2023-09-07T04:53:40;3.83;;;3.63;;
40501;SDS011;29631;49.168;9.848;2023-09-07T04:56:06;4.18;;;3.88;;
40501;SDS011;29631;49.168;9.848;2023-09-07T04:58:33;4.18;;;3.88;;
40501;SDS011;29631;49.168;9.848;2023-09-07T05:01:06;3.92;;;3.63;;
40501;SDS011;29631;49.168;9.848;2023-09-07T05:03:35;3.90;;;3.72;;
40501;SDS011;29631;49.168;9.848;2023-09-07T05:06:01;3.60;;;3.40;;
40501;SDS011;29631;49.168;9.848;2023-09-07T05:08:28;4.20;;;4.00;;
40501;SDS011;29631;49.168;9.848;2023-09-07T05:10:55;3.67;;;3.47;;
40501;SDS011;29631;49.168;9.848;2023-09-07T05:13:25;4.28;;;3.80;;
40501;SDS011;29631;49.168;9.848;2023-09-07T05:15:52;3.90;;;3.70;;
40501;SDS011;29631;49.168;9.848;2023-09-07T05:18:19;4.18;;;3.70;;
40501;SDS011;29631;49.168;9.848;2023-09-07T05:20:45;3.90;;;3.70;;
40501;SDS011;29631;49.168;9.848;2023-09-07T05:23:13;4.03;;;3.78;;
40501;SDS011;29631;49.168;9.848;2023-09-07T05:25:44;3.80;;;3.60;;
40501;SDS011;29631;49.168;9.848;2023-09-07T05:28:14;3.58;;;3.38;;
40501;SDS011;29631;49.168;9.848;2023-09-07T05:30:43;4.15;;;3.85;;
40501;SDS011;29631;49.168;9.848;2023-09-07T05:33:09;4.40;;;3.97;;
40501;SDS011;29631;49.168;9.848;2023-09-07T05:35:36;4.45;;;4.15;;
40501;SDS011;29631;49.168;9.848;2023-09-07T05:38:03;4.30;;;4.00;;
40501;SDS011;29631;49.168;9.848;2023-09-07T05:40:33;4.07;;;3.78;;
40501;SDS011;29631;49.168;9.848;2023-09-07T05:43:00;4.05;;;3.85;;
40501;SDS011;29631;49.168;9.848;2023-09-07T05:45:25;3.90;;;3.70;;
40501;SDS011;29631;49.168;9.848;2023-09-07T05:47:51;4.10;;;3.80;;
40501;SDS011;29631;49.168;9.848;2023-09-07T05:50:17;4.38;;;4.07;;
40501;SDS011;29631;49.168;9.848;2023-09-07T05:52:42;4.28;;;4.05;;
40501;SDS011;29631;49.168;9.848;2023-09-07T05:55:08;4.00;;;3.63;;
40501;SDS011;29631;49.168;9.848;2023-09-07T05:57:35;3.97;;;3.78;;
40501;SDS011;29631;49.168;9.848;2023-09-07T06:00:01;3.95;;;3.65;;
40501;SDS011;29631;49.168;9.848;2023-09-07T06:02:29;3.53;;;3.33;;
40501;SDS011;29631;49.168;9.848;2023-09-07T06:04:55;4.25;;;3.88;;
40501;SDS011;29631;49.168;9.848;2023-09-07T06:07:21;4.00;;;3.80;;
40501;SDS011;29631;49.168;9.848;2023-09-07T06:09:47;4.13;;;3.78;;
40501;SDS011;29631;49.168;9.848;2023-09-07T06:12:12;3.88;;;3.67;;
40501;SDS011;29631;49.168;9.848;2023-09-07T06:14:38;3.88;;;3.67;;
40501;SDS011;29631;49.168;9.848;2023-09-07T06:17:04;4.03;;;3.72;;
40501;SDS011;29631;49.168;9.848;2023-09-07T06:19:30;3.80;;;3.60;;
40501;SDS011;29631;49.168;9.848;2023-09-07T06:21:56;4.00;;;3.78;;
40501;SDS011;29631;49.168;9.848;2023-09-07T06:24:22;4.82;;;3.90;;
40501;SDS011;29631;49.168;9.848;2023-09-07T06:26:48;3.75;;;3.50;;
40501;SDS011;29631;49.168;9.848;2023-09-07T06:29:14;4.07;;;3.88;;
40501;SDS011;29631;49.168;9.848;2023-09-07T06:31:40;5.03;;;3.78;;
40501;SDS011;29631;49.168;9.848;2023-09-07T06:34:06;3.88;;;3.67;;
40501;SDS011;29631;49.168;9.848;2023-09-07T06:36:31;3.97;;;3.67;;
40501;SDS011;29631;49.168;9.848;2023-09-07T06:38:57;5.30;;;3.80;;
40501;SDS011;29631;49.168;9.848;2023-09-07T06:41:24;3.90;;;3.65;;
40501;SDS011;29631;49.168;9.848;2023-09-07T06:43:49;3.90;;;3.60;;
40501;SDS011;29631;49.168;9.848;2023-09-07T06:46:15;3.63;;;3.45;;
40501;SDS011;29631;49.168;9.848;2023-09-07T06:48:41;4.07;;;3.88;;
40501;SDS011;29631;49.168;9.848;2023-09-07T06:51:07;5.20;;;4.15;;
40501;SDS011;29631;49.168;9.848;2023-09-07T06:53:34;3.97;;;3.70;;
40501;SDS011;29631;49.168;9.848;2023-09-07T06:56:00;4.50;;;4.05;;
40501;SDS011;29631;49.168;9.848;2023-09-07T06:58:27;3.80;;;3.60;;
40501;SDS011;29631;49.168;9.848;2023-09-07T07:00:57;4.15;;;3.95;;
40501;SDS011;29631;49.168;9.848;2023-09-07T07:03:25;3.83;;;3.63;;
40501;SDS011;29631;49.168;9.848;2023-09-07T07:05:52;4.05;;;3.75;;
40501;SDS011;29631;49.168;9.848;2023-09-07T07:08:19;4.05;;;3.83;;
40501;SDS011;29631;49.168;9.848;2023-09-07T07:10:44;3.90;;;3.60;;
40501;SDS011;29631;49.168;9.848;2023-09-07T07:13:10;4.07;;;3.65;;
40501;SDS011;29631;49.168;9.848;2023-09-07T07:15:36;3.80;;;3.60;;
40501;SDS011;29631;49.168;9.848;2023-09-07T07:18:02;4.43;;;3.67;;
40501;SDS011;29631;49.168;9.848;2023-09-07T07:20:42;4.05;;;3.75;;
40501;SDS011;29631;49.168;9.848;2023-09-07T07:23:09;3.67;;;3.38;;
40501;SDS011;29631;49.168;9.848;2023-09-07T07:25:37;4.05;;;3.75;;
40501;SDS011;29631;49.168;9.848;2023-09-07T07:28:06;3.78;;;3.50;;
40501;SDS011;29631;49.168;9.848;2023-09-07T07:30:33;3.72;;;3.53;;
40501;SDS011;29631;49.168;9.848;2023-09-07T07:33:03;3.47;;;3.17;;
40501;SDS011;29631;49.168;9.848;2023-09-07T07:35:30;3.75;;;3.55;;
40501;SDS011;29631;49.168;9.848;2023-09-07T07:37:56;3.47;;;3.28;;
40501;SDS011;29631;49.168;9.848;2023-09-07T07:40:22;4.93;;;3.10;;
40501;SDS011;29631;49.168;9.848;2023-09-07T07:42:48;3.55;;;3.22;;
40501;SDS011;29631;49.168;9.848;2023-09-07T07:45:16;3.10;;;3.00;;
40501;SDS011;29631;49.168;9.848;2023-09-07T07:47:44;3.42;;;3.10;;
40501;SDS011;29631;49.168;9.848;2023-09-07T07:50:11;3.65;;;3.45;;
40501;SDS011;29631;49.168;9.848;2023-09-07T07:52:37;5.60;;;3.20;;
40501;SDS011;29631;49.168;9.848;2023-09-07T07:55:03;3.35;;;3.22;;
40501;SDS011;29631;49.168;9.848;2023-09-07T07:57:29;3.20;;;3.10;;
40501;SDS011;29631;49.168;9.848;2023-09-07T07:59:56;3.22;;;3.10;;
40501;SDS011;29631;49.168;9.848;2023-09-07T08:02:22;3.55;;;3.35;;
40501;SDS011;29631;49.168;9.848;2023-09-07T08:04:48;3.38;;;3.15;;
40501;SDS011;29631;49.168;9.848;2023-09-07T08:07:13;2.97;;;2.88;;
40501;SDS011;29631;49.168;9.848;2023-09-07T08:09:39;3.28;;;3.08;;
40501;SDS011;29631;49.168;9.848;2023-09-07T08:12:05;3.22;;;3.08;;
40501;SDS011;29631;49.168;9.848;2023-09-07T08:14:31;3.85;;;3.40;;
40501;SDS011;29631;49.168;9.848;2023-09-07T08:16:58;3.33;;;3.13;;
40501;SDS011;29631;49.168;9.848;2023-09-07T08:19:24;3.20;;;3.00;;
40501;SDS011;29631;49.168;9.848;2023-09-07T08:21:52;4.45;;;2.95;;
40501;SDS011;29631;49.168;9.848;2023-09-07T08:24:18;3.00;;;2.80;;
40501;SDS011;29631;49.168;9.848;2023-09-07T08:26:44;3.22;;;3.05;;
40501;SDS011;29631;49.168;9.848;2023-09-07T08:29:10;3.20;;;3.00;;
40501;SDS011;29631;49.168;9.848;2023-09-07T08:31:36;3.00;;;2.80;;
40501;SDS011;29631;49.168;9.848;2023-09-07T08:34:04;3.50;;;3.30;;
40501;SDS011;29631;49.168;9.848;2023-09-07T08:36:36;3.17;;;3.08;;
40501;SDS011;29631;49.168;9.848;2023-09-07T08:39:03;3.17;;;2.97;;
40501;SDS011;29631;49.168;9.848;2023-09-07T08:41:37;3.20;;;3.00;;
40501;SDS011;29631;49.168;9.848;2023-09-07T08:44:15;3.33;;;3.13;;
40501;SDS011;29631;49.168;9.848;2023-09-07T08:46:43;2.97;;;2.88;;
40501;SDS011;29631;49.168;9.848;2023-09-07T08:49:12;3.13;;;2.92;;
40501;SDS011;29631;49.168;9.848;2023-09-07T08:51:38;2.75;;;2.65;;
40501;SDS011;29631;49.168;9.848;2023-09-07T08:54:04;3.38;;;3.00;;
40501;SDS011;29631;49.168;9.848;2023-09-07T08:56:32;3.00;;;2.90;;
40501;SDS011;29631;49.168;9.848;2023-09-07T08:58:58;2.97;;;2.88;;
40501;SDS011;29631;49.168;9.848;2023-09-07T09:01:24;3.35;;;3.08;;
40501;SDS011;29631;49.168;9.848;2023-09-07T09:03:50;3.03;;;2.92;;
40501;SDS011;29631;49.168;9.848;2023-09-07T09:06:17;3.25;;;3.08;;
40501;SDS011;29631;49.168;9.848;2023-09-07T09:08:44;3.58;;;3.17;;
40501;SDS011;29631;49.168;9.848;2023-09-07T09:11:14;3.03;;;2.92;;
40501;SDS011;29631;49.168;9.848;2023-09-07T09:13:42;3.13;;;2.92;;
40501;SDS011;29631;49.168;9.848;2023-09-07T09:16:11;3.92;;;3.22;;
40501;SDS011;29631;49.168;9.848;2023-09-07T09:18:38;3.03;;;2.80;;
40501;SDS011;29631;49.168;9.848;2023-09-07T09:21:18;2.97;;;2.88;;
40501;SDS011;29631;49.168;9.848;2023-09-07T09:23:48;3.08;;;2.97;;
40501;SDS011;29631;49.168;9.848;2023-09-07T09:26:16;2.80;;;2.70;;
40501;SDS011;29631;49.168;9.848;2023-09-07T09:28:43;3.25;;;3.15;;
40501;SDS011;29631;49.168;9.848;2023-09-07T09:31:13;3.10;;;3.00;;
40501;SDS011;29631;49.168;9.848;2023-09-07T09:33:40;14.88;;;3.50;;
40501;SDS011;29631;49.168;9.848;2023-09-07T09:36:13;3.20;;;3.00;;
40501;SDS011;29631;49.168;9.848;2023-09-07T09:38:39;3.00;;;2.80;;
40501;SDS011;29631;49.168;9.848;2023-09-07T09:41:11;3.10;;;2.90;;
40501;SDS011;29631;49.168;9.848;2023-09-07T09:43:39;2.78;;;2.55;;
40501;SDS011;29631;49.168;9.848;2023-09-07T09:46:05;2.65;;;2.55;;
40501;SDS011;29631;49.168;9.848;2023-09-07T09:48:32;2.95;;;2.75;;
40501;SDS011;29631;49.168;9.848;2023-09-07T09:51:00;2.80;;;2.70;;
40501;SDS011;29631;49.168;9.848;2023-09-07T09:53:28;2.72;;;2.53;;
40501;SDS011;29631;49.168;9.848;2023-09-07T09:55:55;3.10;;;2.90;;
40501;SDS011;29631;49.168;9.848;2023-09-07T09:58:21;2.90;;;2.80;;
40501;SDS011;29631;49.168;9.848;2023-09-07T10:00:48;3.28;;;3.08;;
40501;SDS011;29631;49.168;9.848;2023-09-07T10:03:20;2.67;;;2.58;;
40501;SDS011;29631;49.168;9.848;2023-09-07T10:05:54;3.00;;;2.90;;
40501;SDS011;29631;49.168;9.848;2023-09-07T10:08:20;2.75;;;2.55;;
40501;SDS011;29631;49.168;9.848;2023-09-07T10:10:48;2.67;;;2.58;;
40501;SDS011;29631;49.168;9.848;2023-09-07T10:13:28;3.55;;;3.00;;
40501;SDS011;29631;49.168;9.848;2023-09-07T10:16:03;3.00;;;2.80;;
40501;SDS011;29631;49.168;9.848;2023-09-07T10:18:34;2.63;;;2.53;;
40501;SDS011;29631;49.168;9.848;2023-09-07T10:21:04;3.05;;;2.88;;
40501;SDS011;29631;49.168;9.848;2023-09-07T10:26:11;3.10;;;2.90;;
40501;SDS011;29631;49.168;9.848;2023-09-07T10:28:39;2.90;;;2.78;;
40501;SDS011;29631;49.168;9.848;2023-09-07T10:31:07;2.97;;;2.78;;
40501;SDS011;29631;49.168;9.848;2023-09-07T10:33:39;2.90;;;2.80;;
40501;SDS011;29631;49.168;9.848;2023-09-07T10:36:05;2.75;;;2.65;;
40501;SDS011;29631;49.168;9.848;2023-09-07T10:38:32;2.90;;;2.80;;
40501;SDS011;29631;49.168;9.848;2023-09-07T10:40:59;2.65;;;2.55;;
40501;SDS011;29631;49.168;9.848;2023-09-07T10:43:30;3.05;;;2.85;;
40501;SDS011;29631;49.168;9.848;2023-09-07T10:45:58;2.95;;;2.70;;
40501;SDS011;29631;49.168;9.848;2023-09-07T10:48:25;2.97;;;2.88;;
40501;SDS011;29631;49.168;9.848;2023-09-07T10:50:54;3.05;;;2.85;;
40501;SDS011;29631;49.168;9.848;2023-09-07T10:53:25;2.80;;;2.70;;
40501;SDS011;29631;49.168;9.848;2023-09-07T10:56:04;4.25;;;2.88;;
40501;SDS011;29631;49.168;9.848;2023-09-07T11:01:03;2.58;;;2.40;;
40501;SDS011;29631;49.168;9.848;2023-09-07T11:03:30;2.88;;;2.78;;
40501;SDS011;29631;49.168;9.848;2023-09-07T11:05:59;2.75;;;2.65;;
40501;SDS011;29631;49.168;9.848;2023-09-07T11:08:34;2.92;;;2.72;;
40501;SDS011;29631;49.168;9.848;2023-09-07T11:11:00;2.83;;;2.72;;
40501;SDS011;29631;49.168;9.848;2023-09-07T11:13:29;2.90;;;2.80;;
40501;SDS011;29631;49.168;9.848;2023-09-07T11:15:56;2.83;;;2.72;;
40501;SDS011;29631;49.168;9.848;2023-09-07T11:18:24;2.70;;;2.60;;
40501;SDS011;29631;49.168;9.848;2023-09-07T11:20:51;2.53;;;2.42;;
40501;SDS011;29631;49.168;9.848;2023-09-07T11:23:18;2.85;;;2.75;;
40501;SDS011;29631;49.168;9.848;2023-09-07T11:25:49;4.07;;;2.67;;
40501;SDS011;29631;49.168;9.848;2023-09-07T11:28:16;2.72;;;2.63;;
40501;SDS011;29631;49.168;9.848;2023-09-07T11:30:53;2.70;;;2.60;;
40501;SDS011;29631;49.168;9.848;2023-09-07T11:33:20;3.35;;;2.90;;
40501;SDS011;29631;49.168;9.848;2023-09-07T11:35:48;2.67;;;2.58;;
40501;SDS011;29631;49.168;9.848;2023-09-07T11:38:14;3.00;;;2.80;;
40501;SDS011;29631;49.168;9.848;2023-09-07T11:40:41;3.20;;;3.05;;
40501;SDS011;29631;49.168;9.848;2023-09-07T11:43:10;3.47;;;2.80;;
40501;SDS011;29631;49.168;9.848;2023-09-07T11:45:40;2.95;;;2.75;;
40501;SDS011;29631;49.168;9.848;2023-09-07T11:48:07;3.72;;;2.47;;
40501;SDS011;29631;49.168;9.848;2023-09-07T11:50:34;2.90;;;2.70;;
40501;SDS011;29631;49.168;9.848;2023-09-07T11:53:01;2.72;;;2.53;;
40501;SDS011;29631;49.168;9.848;2023-09-07T11:55:27;2.80;;;2.60;;
40501;SDS011;29631;49.168;9.848;2023-09-07T11:57:52;3.00;;;2.80;;
40501;SDS011;29631;49.168;9.848;2023-09-07T12:00:18;2.80;;;2.70;;
40501;SDS011;29631;49.168;9.848;2023-09-07T12:02:44;2.33;;;2.13;;
40501;SDS011;29631;49.168;9.848;2023-09-07T12:05:10;3.00;;;2.60;;
40501;SDS011;29631;49.168;9.848;2023-09-07T12:07:39;2.72;;;2.63;;
40501;SDS011;29631;49.168;9.848;2023-09-07T12:10:06;2.60;;;2.50;;
40501;SDS011;29631;49.168;9.848;2023-09-07T12:12:36;2.70;;;2.53;;
40501;SDS011;29631;49.168;9.848;2023-09-07T12:15:02;2.70;;;2.60;;
40501;SDS011;29631;49.168;9.848;2023-09-07T12:17:29;2.75;;;2.60;;
40501;SDS011;29631;49.168;9.848;2023-09-07T12:19:57;2.67;;;2.50;;
40501;SDS011;29631;49.168;9.848;2023-09-07T12:22:22;2.60;;;2.50;;
40501;SDS011;29631;49.168;9.848;2023-09-07T12:24:49;2.63;;;2.53;;
40501;SDS011;29631;49.168;9.848;2023-09-07T12:27:14;2.92;;;2.72;;
40501;SDS011;29631;49.168;9.848;2023-09-07T12:29:41;2.60;;;2.50;;
40501;SDS011;29631;49.168;9.848;2023-09-07T12:32:06;2.78;;;2.67;;
40501;SDS011;29631;49.168;9.848;2023-09-07T12:34:32;2.70;;;2.60;;
40501;SDS011;29631;49.168;9.848;2023-09-07T12:36:58;2.47;;;2.28;;
40501;SDS011;29631;49.168;9.848;2023-09-07T12:39:24;3.90;;;3.00;;
40501;SDS011;29631;49.168;9.848;2023-09-07T12:41:49;3.63;;;2.97;;
40501;SDS011;29631;49.168;9.848;2023-09-07T12:44:15;2.88;;;2.78;;
40501;SDS011;29631;49.168;9.848;2023-09-07T12:46:43;2.88;;;2.78;;
40501;SDS011;29631;49.168;9.848;2023-09-07T12:49:09;3.05;;;2.80;;
40501;SDS011;29631;49.168;9.848;2023-09-07T12:51:35;3.65;;;2.63;;
40501;SDS011;29631;49.168;9.848;2023-09-07T12:54:01;2.72;;;2.63;;
40501;SDS011;29631;49.168;9.848;2023-09-07T12:56:27;2.88;;;2.78;;
40501;SDS011;29631;49.168;9.848;2023-09-07T12:58:53;4.35;;;2.85;;
40501;SDS011;29631;49.168;9.848;2023-09-07T13:01:22;2.78;;;2.65;;
40501;SDS011;29631;49.168;9.848;2023-09-07T13:03:47;3.00;;;2.85;;
40501;SDS011;29631;49.168;9.848;2023-09-07T13:06:13;3.00;;;2.80;;
40501;SDS011;29631;49.168;9.848;2023-09-07T13:08:39;2.38;;;2.20;;
40501;SDS011;29631;49.168;9.848;2023-09-07T13:11:04;2.72;;;2.63;;
40501;SDS011;29631;49.168;9.848;2023-09-07T13:13:30;2.92;;;2.60;;
40501;SDS011;29631;49.168;9.848;2023-09-07T13:15:56;2.85;;;2.65;;
40501;SDS011;29631;49.168;9.848;2023-09-07T13:18:22;2.50;;;2.40;;
40501;SDS011;29631;49.168;9.848;2023-09-07T13:20:48;3.08;;;2.80;;
40501;SDS011;29631;49.168;9.848;2023-09-07T13:23:15;2.70;;;2.60;;
40501;SDS011;29631;49.168;9.848;2023-09-07T13:25:41;2.60;;;2.40;;
40501;SDS011;29631;49.168;9.848;2023-09-07T13:28:07;2.90;;;2.70;;
40501;SDS011;29631;49.168;9.848;2023-09-07T13:30:33;3.42;;;2.50;;
40501;SDS011;29631;49.168;9.848;2023-09-07T13:32:58;2.58;;;2.38;;
40501;SDS011;29631;49.168;9.848;2023-09-07T13:35:25;3.00;;;2.80;;
40501;SDS011;29631;49.168;9.848;2023-09-07T13:37:51;2.40;;;2.30;;
40501;SDS011;29631;49.168;9.848;2023-09-07T13:40:17;2.50;;;2.40;;
40501;SDS011;29631;49.168;9.848;2023-09-07T13:42:44;2.35;;;2.25;;
40501;SDS011;29631;49.168;9.848;2023-09-07T13:45:13;2.50;;;2.40;;
40501;SDS011;29631;49.168;9.848;2023-09-07T13:47:38;2.78;;;2.50;;
40501;SDS011;29631;49.168;9.848;2023-09-07T13:50:04;3.50;;;2.53;;
40501;SDS011;29631;49.168;9.848;2023-09-07T13:52:31;3.00;;;2.65;;
40501;SDS011;29631;49.168;9.848;2023-09-07T13:54:57;4.70;;;2.20;;
40501;SDS011;29631;49.168;9.848;2023-09-07T13:57:22;2.60;;;2.50;;
40501;SDS011;29631;49.168;9.848;2023-09-07T13:59:48;2.65;;;2.55;;
40501;SDS011;29631;49.168;9.848;2023-09-07T14:02:14;2.83;;;2.40;;
40501;SDS011;29631;49.168;9.848;2023-09-07T14:04:40;2.45;;;2.35;;
40501;SDS011;29631;49.168;9.848;2023-09-07T14:07:06;2.90;;;2.70;;
40501;SDS011;29631;49.168;9.848;2023-09-07T14:09:31;2.60;;;2.50;;
40501;SDS011;29631;49.168;9.848;2023-09-07T14:11:58;2.65;;;2.45;;
40501;SDS011;29631;49.168;9.848;2023-09-07T14:14:24;2.42;;;2.33;;
40501;SDS011;29631;49.168;9.848;2023-09-07T14:16:50;2.67;;;2.55;;
40501;SDS011;29631;49.168;9.848;2023-09-07T14:19:20;2.40;;;2.30;;
40501;SDS011;29631;49.168;9.848;2023-09-07T14:21:45;2.95;;;2.65;;
40501;SDS011;29631;49.168;9.848;2023-09-07T14:24:11;3.85;;;2.47;;
40501;SDS011;29631;49.168;9.848;2023-09-07T14:26:37;2.88;;;2.78;;
40501;SDS011;29631;49.168;9.848;2023-09-07T14:29:02;2.95;;;2.60;;
40501;SDS011;29631;49.168;9.848;2023-09-07T14:31:29;2.92;;;2.72;;
40501;SDS011;29631;49.168;9.848;2023-09-07T14:33:55;3.00;;;2.33;;
40501;SDS011;29631;49.168;9.848;2023-09-07T14:36:21;3.00;;;2.80;;
40501;SDS011;29631;49.168;9.848;2023-09-07T14:38:47;2.72;;;2.58;;
40501;SDS011;29631;49.168;9.848;2023-09-07T14:41:12;6.35;;;2.58;;
40501;SDS011;29631;49.168;9.848;2023-09-07T14:43:47;3.13;;;2.78;;
40501;SDS011;29631;49.168;9.848;2023-09-07T14:46:14;2.47;;;2.38;;
40501;SDS011;29631;49.168;9.848;2023-09-07T14:48:40;4.03;;;2.70;;
40501;SDS011;29631;49.168;9.848;2023-09-07T14:51:07;2.45;;;2.35;;